Time;durP1;ratioP1;P1;durP2;ratioP2;P2;SDS_P1;SDS_P2;PMS_P1;PMS_P2;Temp;Humidity;BMP_temperature;BMP_pressure;BME280_temperature;BME280_humidity;BME280_pressure;Samples;Min_cycle;Max_cycle;Signal;HPM_P1;HPM_P2
2022/09/28 00:00:40;;;;;;;0.10;0.10;;;9.90;99.90;;;;;;5033667;28;20206;-80
2022/09/28 00:03:08;;;;;;;0.10;0.10;;;10.10;99.90;;;;;;5031327;28;20211;-80
2022/09/28 00:05:34;;;;;;;0.20;0.20;;;10.20;99.90;;;;;;5032103;28;20212;-80
2022/09/28 00:08:00;;;;;;;0.10;0.10;;;10.30;99.90;;;;;;5035709;28;20647;-80
2022/09/28 00:10:25;;;;;;;0.10;0.10;;;10.40;99.90;;;;;;5033445;28;20196;-80
2022/09/28 00:12:54;;;;;;;0.60;0.60;;;10.30;99.90;;;;;;5032678;28;20188;-80
2022/09/28 00:15:20;;;;;;;0.00;0.00;;;10.40;99.90;;;;;;5030561;28;20263;-80
2022/09/28 00:17:45;;;;;;;0.10;0.10;;;10.50;99.90;;;;;;5034769;28;20846;-80
2022/09/28 00:20:11;;;;;;;0.87;0.20;;;10.40;99.90;;;;;;5032808;28;20185;-80
2022/09/28 00:22:37;;;;;;;0.10;0.10;;;10.50;99.90;;;;;;5034948;28;20272;-80
2022/09/28 00:25:04;;;;;;;0.10;0.10;;;10.60;99.90;;;;;;5033116;28;20235;-80
2022/09/28 00:27:30;;;;;;;0.30;0.27;;;10.70;99.90;;;;;;5032185;28;20286;-80
2022/09/28 00:29:56;;;;;;;0.10;0.10;;;10.70;99.90;;;;;;5034024;28;20192;-80
2022/09/28 00:32:23;;;;;;;0.20;0.20;;;10.80;99.90;;;;;;5032363;28;20189;-80
2022/09/28 00:34:50;;;;;;;0.10;0.10;;;10.90;99.90;;;;;;5028255;28;20272;-80
2022/09/28 00:37:17;;;;;;;0.17;0.17;;;10.90;99.90;;;;;;5029724;28;20245;-80
2022/09/28 00:39:43;;;;;;;0.10;0.10;;;10.90;99.90;;;;;;5028104;28;20182;-80
2022/09/28 00:42:18;;;;;;;0.17;0.17;;;11.00;99.90;;;;;;5029315;28;20694;-80
2022/09/28 00:44:48;;;;;;;0.10;0.10;;;11.10;99.90;;;;;;5027230;28;20259;-80
2022/09/28 00:47:38;;;;;;;0.60;0.20;;;11.10;99.90;;;;;;5023209;28;20228;-80
2022/09/28 00:50:06;;;;;;;0.10;0.10;;;11.00;99.90;;;;;;5028935;28;20217;-80
2022/09/28 00:52:39;;;;;;;0.17;0.17;;;11.00;99.90;;;;;;5028596;28;20300;-80
2022/09/28 00:55:15;;;;;;;0.10;0.10;;;11.00;99.90;;;;;;5028331;28;20267;-80
2022/09/28 00:57:46;;;;;;;0.20;0.20;;;11.00;99.90;;;;;;5029016;28;20186;-80
2022/09/28 01:00:13;;;;;;;0.10;0.10;;;11.10;99.90;;;;;;5029198;28;22009;-80
2022/09/28 01:02:38;;;;;;;0.30;0.30;;;11.10;99.90;;;;;;5031005;28;20186;-80
2022/09/28 01:05:06;;;;;;;0.20;0.20;;;11.10;99.90;;;;;;5027482;28;20189;-80
2022/09/28 01:07:32;;;;;;;0.40;0.20;;;11.10;99.90;;;;;;5030442;28;20207;-80
2022/09/28 01:09:58;;;;;;;0.10;0.10;;;11.20;99.90;;;;;;5029913;28;20672;-80
2022/09/28 01:12:24;;;;;;;0.10;0.10;;;11.20;99.90;;;;;;5029602;28;20696;-80
2022/09/28 01:14:50;;;;;;;0.40;0.40;;;11.20;99.90;;;;;;5029862;28;20207;-80
2022/09/28 01:17:38;;;;;;;0.20;0.20;;;11.20;99.90;;;;;;5031325;28;20234;-80
2022/09/28 01:20:04;;;;;;;0.10;0.10;;;11.10;99.90;;;;;;5029388;28;20186;-80
2022/09/28 01:22:33;;;;;;;0.10;0.10;;;11.10;99.90;;;;;;5031096;28;20189;-80
2022/09/28 01:25:23;;;;;;;0.10;0.10;;;11.20;99.90;;;;;;5026896;28;20185;-80
2022/09/28 01:28:19;;;;;;;0.87;0.27;;;11.10;99.90;;;;;;5031864;28;20180;-80
2022/09/28 01:31:09;;;;;;;0.17;0.17;;;10.80;99.90;;;;;;5022263;28;20189;-80
2022/09/28 01:33:45;;;;;;;0.40;0.40;;;10.80;99.90;;;;;;5029970;28;20531;-80
2022/09/28 01:36:26;;;;;;;0.10;0.10;;;10.90;99.90;;;;;;5031279;28;21044;-80
2022/09/28 01:39:00;;;;;;;0.10;0.10;;;10.90;99.90;;;;;;5029546;28;20185;-80
2022/09/28 01:41:29;;;;;;;0.63;0.63;;;10.90;99.90;;;;;;5031039;28;20217;-80
2022/09/28 01:43:56;;;;;;;0.10;0.10;;;11.00;99.90;;;;;;5028918;28;20242;-80
2022/09/28 01:46:26;;;;;;;0.10;0.10;;;11.00;99.90;;;;;;5029047;28;20219;-80
2022/09/28 01:49:06;;;;;;;0.10;0.10;;;10.90;99.90;;;;;;5028221;28;20186;-80
2022/09/28 01:51:42;;;;;;;0.10;0.10;;;11.00;99.90;;;;;;5030160;28;20195;-80
2022/09/28 01:54:25;;;;;;;0.37;0.27;;;10.90;99.90;;;;;;5028301;28;20208;-81
2022/09/28 01:56:56;;;;;;;0.20;0.20;;;10.70;99.90;;;;;;5026528;28;20564;-80
2022/09/28 01:59:27;;;;;;;0.63;0.50;;;10.60;99.90;;;;;;5030143;28;20198;-80
2022/09/28 02:01:57;;;;;;;0.20;0.20;;;10.40;99.90;;;;;;5029822;28;20986;-81
2022/09/28 02:04:33;;;;;;;0.10;0.10;;;10.00;99.90;;;;;;5035773;28;20639;-80
2022/09/28 02:07:30;;;;;;;1.20;0.30;;;9.90;99.90;;;;;;5036988;28;20760;-80
2022/09/28 02:10:05;;;;;;;0.00;0.00;;;10.00;99.90;;;;;;5036418;28;20667;-80
2022/09/28 02:12:40;;;;;;;0.10;0.10;;;10.00;99.90;;;;;;5033228;28;20633;-80
2022/09/28 02:15:44;;;;;;;0.27;0.27;;;10.10;99.90;;;;;;5036931;28;20751;-80
2022/09/28 02:18:10;;;;;;;0.03;0.03;;;10.10;99.90;;;;;;5035554;28;20216;-80
2022/09/28 02:20:39;;;;;;;0.10;0.10;;;10.10;99.90;;;;;;5035447;28;20216;-80
2022/09/28 02:23:07;;;;;;;0.10;0.10;;;10.20;99.90;;;;;;5035543;28;20211;-80
2022/09/28 02:25:35;;;;;;;0.10;0.10;;;10.10;99.90;;;;;;5035282;28;20214;-80
2022/09/28 02:28:04;;;;;;;0.10;0.10;;;10.10;99.90;;;;;;5034419;28;20227;-80
2022/09/28 02:30:32;;;;;;;0.10;0.10;;;10.20;99.90;;;;;;5051089;28;20193;-80
2022/09/28 02:33:08;;;;;;;0.20;0.20;;;10.10;99.90;;;;;;5035612;28;20230;-80
2022/09/28 02:35:34;;;;;;;0.10;0.10;;;10.10;99.90;;;;;;5034650;28;20230;-80
2022/09/28 02:38:00;;;;;;;0.10;0.10;;;10.20;99.90;;;;;;5035764;28;20192;-80
2022/09/28 02:40:30;;;;;;;0.10;0.10;;;10.30;99.90;;;;;;5035304;28;20266;-80
2022/09/28 02:43:10;;;;;;;0.10;0.10;;;10.30;99.90;;;;;;5035753;28;20181;-80
2022/09/28 02:45:51;;;;;;;0.10;0.10;;;10.40;99.90;;;;;;5033373;28;20212;-80
2022/09/28 02:48:44;;;;;;;0.10;0.10;;;10.30;99.90;;;;;;5035677;28;20257;-80
2022/09/28 02:51:34;;;;;;;0.10;0.10;;;10.40;99.90;;;;;;5035479;28;20211;-80
2022/09/28 02:54:11;;;;;;;0.10;0.10;;;10.30;99.90;;;;;;5034745;28;20191;-80
2022/09/28 02:56:49;;;;;;;0.20;0.20;;;10.30;99.90;;;;;;5031302;28;20762;-80
2022/09/28 02:59:39;;;;;;;0.10;0.10;;;10.40;99.90;;;;;;5032359;28;20213;-81
2022/09/28 03:02:13;;;;;;;0.10;0.10;;;10.40;99.90;;;;;;5024899;28;20206;-80
2022/09/28 03:04:52;;;;;;;0.10;0.10;;;10.40;99.90;;;;;;5031060;28;20260;-81
2022/09/28 03:07:39;;;;;;;0.20;0.20;;;10.30;99.90;;;;;;5032401;28;20212;-80
2022/09/28 03:10:20;;;;;;;0.10;0.10;;;10.30;99.90;;;;;;5032371;28;20181;-80
2022/09/28 03:12:47;;;;;;;0.10;0.10;;;10.30;99.90;;;;;;5033469;28;20239;-80
2022/09/28 03:15:24;;;;;;;0.20;0.20;;;10.30;99.90;;;;;;5035507;28;20181;-81
2022/09/28 03:17:50;;;;;;;0.10;0.10;;;10.30;99.90;;;;;;5035291;28;20205;-80
2022/09/28 03:20:16;;;;;;;0.10;0.10;;;10.30;99.90;;;;;;5031188;28;20181;-80
2022/09/28 03:22:42;;;;;;;0.10;0.10;;;10.20;99.90;;;;;;5036821;28;20196;-80
2022/09/28 03:25:08;;;;;;;0.10;0.10;;;10.20;99.90;;;;;;5032330;28;20223;-81
2022/09/28 03:27:33;;;;;;;0.10;0.10;;;10.20;99.90;;;;;;5035035;28;20555;-80
2022/09/28 03:29:59;;;;;;;0.00;0.00;;;10.20;99.90;;;;;;5034703;28;20197;-81
2022/09/28 03:32:25;;;;;;;0.30;0.30;;;10.20;99.90;;;;;;5034323;28;20190;-80
2022/09/28 03:34:50;;;;;;;1.20;0.20;;;10.20;99.90;;;;;;5032295;28;20199;-80
2022/09/28 03:37:16;;;;;;;0.10;0.10;;;10.30;99.90;;;;;;5033266;28;20266;-81
2022/09/28 03:39:41;;;;;;;0.10;0.10;;;10.30;99.90;;;;;;5033690;28;20181;-80
2022/09/28 03:42:07;;;;;;;0.00;0.00;;;10.30;99.90;;;;;;5031708;28;20205;-80
2022/09/28 03:44:32;;;;;;;0.10;0.10;;;10.30;99.90;;;;;;5033081;28;20256;-80
2022/09/28 03:46:58;;;;;;;0.10;0.10;;;10.30;99.90;;;;;;5033216;28;20274;-80
2022/09/28 03:49:23;;;;;;;0.20;0.20;;;10.30;99.90;;;;;;5034395;28;20212;-80
2022/09/28 03:51:49;;;;;;;0.20;0.20;;;10.20;99.90;;;;;;5033937;28;20216;-81
2022/09/28 03:54:14;;;;;;;0.10;0.10;;;10.10;99.90;;;;;;5032508;28;20189;-80
2022/09/28 03:56:40;;;;;;;0.73;0.30;;;10.00;99.90;;;;;;5032014;28;20220;-81
2022/09/28 03:59:06;;;;;;;0.10;0.10;;;9.90;99.90;;;;;;5032213;28;20193;-80
2022/09/28 04:01:31;;;;;;;0.10;0.10;;;9.90;99.90;;;;;;5034138;28;20291;-80
2022/09/28 04:03:57;;;;;;;0.17;0.17;;;9.90;99.90;;;;;;5032098;28;20180;-80
2022/09/28 04:06:23;;;;;;;0.10;0.10;;;9.90;99.90;;;;;;5029371;28;20681;-80
2022/09/28 04:08:49;;;;;;;0.10;0.10;;;9.90;99.90;;;;;;5030431;28;20546;-80
2022/09/28 04:11:14;;;;;;;0.10;0.10;;;9.80;99.90;;;;;;5032220;28;20189;-80
2022/09/28 04:13:40;;;;;;;0.20;0.20;;;9.80;99.90;;;;;;5031823;28;20193;-80
2022/09/28 04:16:05;;;;;;;0.10;0.10;;;9.70;99.90;;;;;;5032998;28;20204;-80
2022/09/28 04:18:32;;;;;;;0.10;0.10;;;9.70;99.90;;;;;;5032883;28;20235;-80
2022/09/28 04:21:06;;;;;;;0.10;0.10;;;9.60;99.90;;;;;;5029480;28;20216;-80
2022/09/28 04:23:33;;;;;;;0.10;0.10;;;9.60;99.90;;;;;;5047398;28;20204;-80
2022/09/28 04:25:59;;;;;;;0.10;0.10;;;9.60;99.90;;;;;;5032543;28;20261;-80
2022/09/28 04:31:13;;;;;;;0.13;0.13;;;9.30;99.90;;;;;;5033428;28;20569;-80
2022/09/28 04:33:39;;;;;;;0.17;0.17;;;9.10;99.90;;;;;;5033915;28;20208;-80
2022/09/28 04:36:05;;;;;;;0.10;0.10;;;9.20;99.90;;;;;;5026882;28;20230;-80
2022/09/28 04:38:31;;;;;;;0.20;0.20;;;9.10;99.90;;;;;;5030755;28;20216;-80
2022/09/28 04:40:57;;;;;;;0.10;0.10;;;9.10;99.90;;;;;;5031936;28;20204;-80
2022/09/28 04:43:22;;;;;;;0.10;0.10;;;9.10;99.90;;;;;;5033866;28;20196;-79
2022/09/28 04:45:48;;;;;;;0.10;0.10;;;9.00;99.90;;;;;;5033183;28;20234;-81
2022/09/28 04:48:13;;;;;;;0.17;0.17;;;9.10;99.90;;;;;;5032415;28;20183;-80
2022/09/28 04:50:39;;;;;;;0.10;0.10;;;9.10;99.90;;;;;;5032131;28;20535;-81
2022/09/28 04:53:04;;;;;;;0.17;0.17;;;9.30;99.90;;;;;;5033075;28;20188;-80
2022/09/28 04:55:31;;;;;;;0.10;0.10;;;9.00;99.90;;;;;;5032451;28;20230;-80
2022/09/28 04:58:03;;;;;;;0.17;0.17;;;9.00;99.90;;;;;;5030837;28;20240;-80
2022/09/28 05:00:33;;;;;;;0.10;0.10;;;9.00;99.90;;;;;;5030399;28;20211;-80
2022/09/28 05:02:59;;;;;;;0.10;0.10;;;9.10;99.90;;;;;;5030304;28;20237;-80
2022/09/28 05:05:24;;;;;;;0.10;0.10;;;9.10;99.90;;;;;;5030768;28;20182;-80
2022/09/28 05:07:50;;;;;;;0.10;0.10;;;9.00;99.90;;;;;;5028569;28;20187;-80
2022/09/28 05:10:16;;;;;;;0.17;0.17;;;9.10;99.90;;;;;;5030897;28;20234;-80
2022/09/28 05:12:42;;;;;;;0.10;0.10;;;9.10;99.90;;;;;;5031482;28;20188;-80
2022/09/28 05:15:07;;;;;;;0.10;0.10;;;9.20;99.90;;;;;;5033825;28;20200;-80
2022/09/28 05:17:33;;;;;;;0.20;0.20;;;9.10;99.90;;;;;;5030572;28;20677;-80
2022/09/28 05:19:59;;;;;;;0.10;0.10;;;9.10;99.90;;;;;;5035259;28;20440;-80
2022/09/28 05:22:25;;;;;;;0.20;0.20;;;9.00;99.90;;;;;;5030742;28;20210;-80
2022/09/28 05:24:50;;;;;;;0.10;0.10;;;9.00;99.90;;;;;;5032241;28;20193;-80
2022/09/28 05:27:16;;;;;;;2.53;0.30;;;9.00;99.90;;;;;;5031665;28;20204;-80
2022/09/28 05:29:41;;;;;;;1.30;0.50;;;9.00;99.90;;;;;;5030260;28;20183;-80
2022/09/28 05:32:07;;;;;;;0.10;0.10;;;9.00;99.90;;;;;;5031116;28;20194;-80
2022/09/28 05:34:32;;;;;;;0.00;0.00;;;9.00;99.90;;;;;;5032062;28;20188;-80
2022/09/28 05:36:58;;;;;;;0.40;0.40;;;9.00;99.90;;;;;;5028764;28;20282;-80
2022/09/28 05:39:23;;;;;;;0.10;0.10;;;9.00;99.90;;;;;;5032715;28;20181;-80
2022/09/28 05:41:49;;;;;;;0.10;0.10;;;9.00;99.90;;;;;;5029400;28;20207;-80
2022/09/28 05:44:15;;;;;;;0.33;0.33;;;9.00;99.90;;;;;;5031930;28;20182;-80
2022/09/28 05:46:40;;;;;;;0.63;0.63;;;9.00;99.90;;;;;;5029908;28;20361;-80
2022/09/28 05:49:06;;;;;;;0.10;0.10;;;9.10;99.90;;;;;;5032109;28;20225;-79
2022/09/28 05:51:31;;;;;;;0.20;0.20;;;9.10;99.90;;;;;;5029884;28;20222;-80
2022/09/28 05:53:57;;;;;;;0.20;0.20;;;9.10;99.90;;;;;;5030845;28;20736;-80
2022/09/28 05:56:22;;;;;;;0.10;0.10;;;9.20;99.90;;;;;;5028389;28;20206;-80
2022/09/28 05:58:48;;;;;;;0.20;0.20;;;9.20;99.90;;;;;;5031208;28;20660;-80
2022/09/28 06:01:13;;;;;;;0.13;0.10;;;9.20;99.90;;;;;;5030247;28;20207;-80
2022/09/28 06:03:39;;;;;;;0.40;0.40;;;9.30;99.90;;;;;;5046752;28;20651;-80
2022/09/28 06:06:04;;;;;;;0.10;0.10;;;9.30;99.90;;;;;;5031854;28;20588;-80
2022/09/28 06:08:31;;;;;;;0.10;0.10;;;9.30;99.90;;;;;;5030093;28;20184;-79
2022/09/28 06:11:01;;;;;;;0.10;0.10;;;9.30;99.90;;;;;;5030397;28;20544;-80
2022/09/28 06:13:27;;;;;;;0.63;0.50;;;9.30;99.90;;;;;;5031356;28;20192;-80
2022/09/28 06:15:53;;;;;;;0.10;0.10;;;9.40;99.90;;;;;;5031593;28;20253;-80
2022/09/28 06:18:19;;;;;;;0.10;0.10;;;9.40;99.90;;;;;;5031242;28;20834;-80
2022/09/28 06:20:44;;;;;;;0.10;0.10;;;9.50;99.90;;;;;;5032205;28;20202;-80
2022/09/28 06:23:11;;;;;;;0.10;0.10;;;9.50;99.90;;;;;;5030314;28;20247;-80
2022/09/28 06:25:37;;;;;;;0.30;0.20;;;9.60;99.90;;;;;;5028180;28;20730;-80
2022/09/28 06:28:08;;;;;;;0.00;0.00;;;9.70;99.90;;;;;;5027301;28;20186;-82
2022/09/28 06:30:37;;;;;;;0.10;0.10;;;9.80;99.90;;;;;;5030201;28;20182;-82
2022/09/28 06:33:04;;;;;;;0.10;0.10;;;9.80;99.90;;;;;;5030367;28;20277;-82
2022/09/28 06:35:30;;;;;;;0.10;0.10;;;9.80;99.90;;;;;;5031053;28;20204;-82
2022/09/28 06:37:58;;;;;;;0.20;0.20;;;9.90;99.90;;;;;;5028354;28;20197;-81
2022/09/28 06:40:24;;;;;;;0.10;0.10;;;10.00;99.90;;;;;;5032191;28;20184;-81
2022/09/28 06:42:58;;;;;;;0.10;0.10;;;10.10;99.90;;;;;;5029917;28;20189;-81
2022/09/28 06:45:24;;;;;;;0.10;0.10;;;10.10;99.90;;;;;;5026081;28;20295;-81
2022/09/28 06:47:58;;;;;;;1.40;0.27;;;10.20;99.90;;;;;;5028915;28;20616;-80
2022/09/28 06:50:25;;;;;;;0.10;0.10;;;10.20;99.90;;;;;;5036329;28;20201;-80
2022/09/28 06:52:53;;;;;;;0.10;0.10;;;10.30;99.90;;;;;;5032829;28;20187;-80
2022/09/28 06:55:19;;;;;;;0.10;0.10;;;10.40;99.90;;;;;;5035243;28;20184;-80
2022/09/28 06:57:45;;;;;;;0.10;0.10;;;10.50;99.90;;;;;;5031062;28;20194;-79
2022/09/28 07:00:11;;;;;;;0.10;0.10;;;10.30;99.90;;;;;;5034138;28;20202;-79
2022/09/28 07:02:37;;;;;;;0.10;0.10;;;10.20;99.90;;;;;;5027823;28;20194;-80
2022/09/28 07:05:02;;;;;;;0.10;0.10;;;10.20;99.90;;;;;;5031938;28;20194;-80
2022/09/28 07:07:30;;;;;;;0.10;0.10;;;10.30;99.90;;;;;;5032177;28;20211;-80
2022/09/28 07:09:55;;;;;;;0.10;0.10;;;10.40;99.90;;;;;;5035505;28;20189;-80
2022/09/28 07:12:24;;;;;;;0.10;0.10;;;10.50;99.90;;;;;;5036036;28;20662;-80
2022/09/28 07:14:54;;;;;;;0.10;0.10;;;10.70;99.90;;;;;;5030346;28;20187;-80
2022/09/28 07:17:21;;;;;;;0.10;0.10;;;10.80;99.90;;;;;;5031825;28;20705;-80
2022/09/28 07:19:51;;;;;;;0.13;0.13;;;11.10;99.90;;;;;;5034331;28;20721;-80
2022/09/28 07:22:20;;;;;;;1.70;0.47;;;11.20;99.90;;;;;;5039919;28;20205;-80
2022/09/28 07:24:47;;;;;;;0.20;0.20;;;11.30;99.90;;;;;;5039328;28;20182;-81
2022/09/28 07:27:12;;;;;;;0.10;0.10;;;11.50;99.90;;;;;;5042965;28;20217;-81
2022/09/28 07:29:38;;;;;;;0.10;0.10;;;11.60;99.90;;;;;;5043625;28;20209;-81
2022/09/28 07:32:03;;;;;;;0.10;0.10;;;11.70;99.90;;;;;;5041328;28;20184;-80
2022/09/28 07:34:29;;;;;;;0.10;0.10;;;12.00;99.90;;;;;;5037700;28;20273;-80
2022/09/28 07:36:57;;;;;;;0.20;0.20;;;12.10;99.90;;;;;;5041085;28;20209;-80
2022/09/28 07:39:23;;;;;;;0.10;0.10;;;11.90;99.90;;;;;;5041576;28;20185;-80
2022/09/28 07:41:49;;;;;;;0.10;0.10;;;12.00;99.90;;;;;;5042238;28;20216;-80
2022/09/28 07:44:16;;;;;;;0.30;0.30;;;12.10;99.90;;;;;;5057397;28;20186;-80
2022/09/28 07:46:42;;;;;;;0.10;0.10;;;12.30;99.90;;;;;;5042936;28;20236;-80
2022/09/28 07:49:07;;;;;;;0.27;0.27;;;12.50;99.90;;;;;;5044203;28;20185;-80
2022/09/28 07:51:33;;;;;;;0.10;0.10;;;12.30;99.90;;;;;;5037522;28;20669;-81
2022/09/28 07:53:59;;;;;;;0.20;0.20;;;12.30;99.90;;;;;;5039864;28;20201;-80
2022/09/28 07:56:25;;;;;;;0.13;0.13;;;12.40;99.90;;;;;;5035781;28;20209;-80
2022/09/28 07:58:51;;;;;;;0.10;0.10;;;12.40;99.90;;;;;;5036662;28;20244;-80
2022/09/28 08:01:18;;;;;;;1.00;0.20;;;12.30;99.90;;;;;;5036494;28;20211;-80
2022/09/28 08:03:44;;;;;;;0.10;0.10;;;12.20;99.90;;;;;;5040229;28;20256;-80
2022/09/28 08:06:11;;;;;;;0.10;0.10;;;12.40;99.90;;;;;;5036463;28;20202;-82
2022/09/28 08:08:42;;;;;;;0.10;0.10;;;12.50;99.90;;;;;;5033677;28;20185;-80
2022/09/28 08:11:09;;;;;;;0.13;0.13;;;12.80;99.90;;;;;;5034274;28;20219;-82
2022/09/28 08:13:36;;;;;;;0.20;0.20;;;12.80;99.90;;;;;;5031505;28;20243;-80
2022/09/28 08:16:02;;;;;;;0.10;0.10;;;13.10;99.90;;;;;;5031520;28;20214;-81
2022/09/28 08:18:29;;;;;;;0.20;0.20;;;13.10;99.90;;;;;;5037433;28;20223;-80
2022/09/28 08:23:39;;;;;;;0.13;0.10;;;12.80;99.90;;;;;;5037153;28;20284;-81
2022/09/28 08:26:05;;;;;;;0.13;0.13;;;13.00;99.90;;;;;;5033021;28;20757;-80
2022/09/28 08:28:31;;;;;;;0.10;0.10;;;13.10;99.90;;;;;;5033200;28;20292;-80
2022/09/28 08:30:59;;;;;;;0.20;0.20;;;13.30;99.90;;;;;;5033803;28;20189;-80
2022/09/28 08:33:25;;;;;;;0.10;0.10;;;13.40;99.90;;;;;;5034025;28;20189;-80
2022/09/28 08:35:58;;;;;;;0.10;0.10;;;13.30;99.90;;;;;;5033894;28;20240;-80
2022/09/28 08:38:25;;;;;;;0.10;0.10;;;13.30;99.90;;;;;;5032480;28;20178;-80
2022/09/28 08:41:22;;;;;;;0.10;0.10;;;13.50;99.90;;;;;;5033935;28;20222;-79
2022/09/28 08:44:12;;;;;;;0.30;0.30;;;13.80;99.90;;;;;;5030453;28;20200;-79
2022/09/28 08:46:44;;;;;;;0.10;0.10;;;14.10;99.90;;;;;;5030821;28;20719;-80
2022/09/28 08:49:19;;;;;;;0.40;0.40;;;14.20;99.90;;;;;;5033465;28;20186;-80
2022/09/28 08:51:51;;;;;;;0.20;0.20;;;14.40;99.90;;;;;;5028053;28;20201;-80
2022/09/28 08:54:32;;;;;;;0.10;0.10;;;14.40;99.90;;;;;;5031713;28;20290;-80
2022/09/28 08:57:03;;;;;;;0.20;0.20;;;14.40;99.90;;;;;;5033563;28;20209;-80
2022/09/28 08:59:46;;;;;;;1.27;0.40;;;14.40;99.90;;;;;;5033516;28;20652;-80
2022/09/28 09:02:32;;;;;;;0.10;0.10;;;14.30;99.90;;;;;;5032562;28;20217;-80
2022/09/28 09:05:01;;;;;;;0.10;0.10;;;14.50;99.90;;;;;;5031175;28;20205;-79
2022/09/28 09:07:42;;;;;;;0.37;0.37;;;14.40;99.90;;;;;;5029985;28;20218;-80
2022/09/28 09:10:29;;;;;;;0.20;0.20;;;14.60;99.90;;;;;;5032339;28;20190;-79
2022/09/28 09:13:13;;;;;;;0.20;0.20;;;14.50;99.90;;;;;;5028878;28;20297;-79
2022/09/28 09:16:11;;;;;;;0.23;0.23;;;14.70;99.90;;;;;;5030270;28;20305;-80
2022/09/28 09:19:05;;;;;;;0.77;0.37;;;14.80;99.90;;;;;;5030887;28;20185;-79
2022/09/28 09:22:00;;;;;;;0.17;0.17;;;14.80;99.90;;;;;;5028221;28;20244;-80
2022/09/28 09:24:53;;;;;;;0.10;0.10;;;14.80;99.90;;;;;;5017654;28;20229;-85
2022/09/28 09:27:31;;;;;;;0.10;0.10;;;14.50;99.90;;;;;;5029063;28;20210;-80
2022/09/28 09:30:21;;;;;;;0.20;0.20;;;14.40;99.90;;;;;;5033282;28;20259;-80
2022/09/28 09:33:25;;;;;;;0.10;0.10;;;14.10;99.90;;;;;;5029574;28;20196;-80
2022/09/28 09:36:29;;;;;;;0.10;0.10;;;13.80;99.90;;;;;;4993295;28;20249;-80
2022/09/28 09:39:41;;;;;;;0.17;0.17;;;13.50;99.90;;;;;;5011140;28;20194;-80
2022/09/28 09:42:36;;;;;;;0.10;0.10;;;13.30;99.90;;;;;;5032695;28;20736;-80
2022/09/28 09:45:17;;;;;;;0.10;0.10;;;13.20;99.90;;;;;;5033947;28;20636;-80
2022/09/28 09:47:49;;;;;;;0.10;0.10;;;13.00;99.90;;;;;;5035978;28;20194;-80
2022/09/28 09:50:29;;;;;;;0.10;0.10;;;13.00;99.90;;;;;;5032087;28;20209;-80
2022/09/28 09:53:08;;;;;;;0.10;0.10;;;13.20;99.90;;;;;;5030454;28;20680;-80
2022/09/28 09:55:45;;;;;;;0.10;0.10;;;13.40;99.90;;;;;;5034688;28;20239;-80
2022/09/28 09:58:17;;;;;;;0.10;0.10;;;13.50;99.90;;;;;;5031835;28;20185;-80
2022/09/28 10:00:46;;;;;;;0.13;0.13;;;13.70;99.90;;;;;;5033729;28;20233;-80
2022/09/28 10:03:28;;;;;;;0.10;0.10;;;13.80;99.90;;;;;;5033839;28;20191;-80
2022/09/28 10:06:07;;;;;;;0.83;0.20;;;13.90;99.90;;;;;;5033444;28;20821;-79
2022/09/28 10:08:49;;;;;;;0.10;0.10;;;14.10;99.90;;;;;;5031691;28;20185;-80
2022/09/28 10:11:24;;;;;;;0.10;0.10;;;14.20;99.90;;;;;;5033758;28;20197;-80
2022/09/28 10:13:49;;;;;;;3.83;0.50;;;14.20;99.90;;;;;;5034397;28;20194;-80
2022/09/28 10:16:17;;;;;;;0.30;0.30;;;14.20;99.90;;;;;;5036072;28;20751;-80
2022/09/28 10:18:43;;;;;;;0.10;0.10;;;14.40;99.90;;;;;;5034706;28;20651;-80
2022/09/28 10:21:13;;;;;;;0.10;0.10;;;14.30;99.90;;;;;;5031387;28;20216;-80
2022/09/28 10:23:40;;;;;;;0.10;0.10;;;14.10;99.90;;;;;;5035106;28;20179;-80
2022/09/28 10:26:14;;;;;;;0.10;0.10;;;14.00;99.90;;;;;;5036372;28;20702;-79
2022/09/28 10:28:47;;;;;;;0.40;0.37;;;13.90;99.90;;;;;;5038300;28;20184;-80
2022/09/28 10:31:39;;;;;;;0.10;0.10;;;13.80;99.90;;;;;;5035734;28;20190;-79
2022/09/28 10:34:07;;;;;;;0.10;0.10;;;13.90;99.90;;;;;;5037780;28;20313;-80
2022/09/28 10:36:44;;;;;;;0.10;0.10;;;14.00;99.90;;;;;;5034166;28;20220;-80
2022/09/28 10:39:32;;;;;;;0.13;0.13;;;13.90;99.90;;;;;;5036289;28;20190;-80
2022/09/28 10:42:02;;;;;;;0.17;0.17;;;14.00;99.90;;;;;;5039210;28;20276;-80
2022/09/28 10:44:32;;;;;;;0.10;0.10;;;14.10;99.90;;;;;;5037280;28;20184;-80
2022/09/28 10:47:04;;;;;;;0.20;0.20;;;14.20;99.90;;;;;;5037542;28;20212;-79
2022/09/28 10:49:41;;;;;;;0.10;0.10;;;14.30;99.90;;;;;;5037999;28;20181;-80
2022/09/28 10:52:40;;;;;;;0.20;0.20;;;14.40;99.90;;;;;;5036284;28;20628;-80
2022/09/28 10:55:24;;;;;;;3.03;0.30;;;14.50;99.90;;;;;;5036273;28;20185;-80
2022/09/28 10:57:49;;;;;;;0.10;0.10;;;14.50;99.90;;;;;;5035166;28;20245;-77
2022/09/28 11:00:40;;;;;;;1.43;1.33;;;14.60;99.90;;;;;;5033090;28;20290;-78
2022/09/28 11:03:16;;;;;;;0.10;0.10;;;14.60;99.90;;;;;;5034642;28;20597;-77
2022/09/28 11:05:42;;;;;;;0.10;0.10;;;14.70;99.90;;;;;;5035342;28;21018;-77
2022/09/28 11:08:16;;;;;;;0.13;0.13;;;14.70;99.90;;;;;;5032727;28;20187;-77
2022/09/28 11:10:42;;;;;;;0.20;0.20;;;14.70;99.90;;;;;;5035664;28;20655;-78
2022/09/28 11:13:08;;;;;;;0.23;0.23;;;14.50;99.90;;;;;;5034173;28;20200;-77
2022/09/28 11:15:41;;;;;;;0.37;0.37;;;14.50;99.90;;;;;;5035429;28;20654;-77
2022/09/28 11:18:31;;;;;;;0.47;0.47;;;14.30;99.90;;;;;;5034440;28;20191;-78
2022/09/28 11:21:24;;;;;;;0.10;0.10;;;14.50;99.90;;;;;;5033986;28;20228;-77
2022/09/28 11:24:05;;;;;;;0.10;0.10;;;14.60;99.90;;;;;;5033708;28;20534;-77
2022/09/28 11:26:37;;;;;;;0.10;0.10;;;14.80;99.90;;;;;;5035197;28;20200;-78
2022/09/28 11:29:04;;;;;;;0.10;0.10;;;14.90;99.90;;;;;;5033434;28;20192;-78
2022/09/28 11:31:30;;;;;;;0.10;0.10;;;15.30;99.90;;;;;;5032736;28;20788;-77
2022/09/28 11:34:25;;;;;;;0.20;0.20;;;15.30;99.90;;;;;;5035704;28;20258;-77
2022/09/28 11:36:56;;;;;;;0.20;0.20;;;15.30;99.90;;;;;;5034623;28;20211;-78
2022/09/28 11:39:30;;;;;;;0.30;0.30;;;15.50;99.90;;;;;;5033317;28;20270;-78
2022/09/28 11:42:16;;;;;;;0.10;0.10;;;15.50;99.90;;;;;;5034978;28;20635;-78
2022/09/28 11:44:45;;;;;;;0.10;0.10;;;15.30;99.90;;;;;;5033968;28;20181;-78
2022/09/28 11:47:24;;;;;;;0.20;0.20;;;14.20;99.90;;;;;;5048591;28;20616;-78
2022/09/28 11:49:54;;;;;;;0.20;0.20;;;13.30;99.90;;;;;;5034313;28;20180;-78
2022/09/28 11:52:45;;;;;;;0.10;0.10;;;13.30;99.90;;;;;;5033894;28;20195;-77
2022/09/28 11:55:35;;;;;;;0.10;0.10;;;13.30;99.90;;;;;;5032918;28;20192;-78
2022/09/28 11:58:21;;;;;;;0.10;0.10;;;13.30;99.90;;;;;;5030702;28;20582;-78
2022/09/28 12:00:53;;;;;;;0.10;0.10;;;12.90;99.90;;;;;;5034178;28;21026;-77
2022/09/28 12:03:32;;;;;;;0.13;0.13;;;12.80;99.90;;;;;;5037075;28;20182;-77
2022/09/28 12:06:02;;;;;;;0.10;0.10;;;12.80;99.90;;;;;;5034274;28;20289;-78
2022/09/28 12:08:33;;;;;;;0.10;0.10;;;12.50;99.90;;;;;;5032209;28;20640;-78
2022/09/28 12:11:20;;;;;;;0.10;0.10;;;12.60;99.90;;;;;;5033480;28;20551;-78
2022/09/28 12:13:48;;;;;;;0.20;0.20;;;12.60;99.90;;;;;;5032112;28;20192;-77
2022/09/28 12:16:20;;;;;;;0.10;0.10;;;12.80;99.90;;;;;;5032325;28;21094;-77
2022/09/28 12:19:01;;;;;;;0.27;0.27;;;12.90;99.90;;;;;;5033847;28;20747;-78
2022/09/28 12:21:45;;;;;;;0.73;0.73;;;13.50;99.90;;;;;;5034577;28;20284;-77
2022/09/28 12:24:25;;;;;;;0.20;0.20;;;13.40;99.90;;;;;;5032582;28;20340;-77
2022/09/28 12:27:09;;;;;;;0.13;0.13;;;13.80;99.90;;;;;;5032954;28;20294;-78
2022/09/28 12:29:46;;;;;;;3.73;0.63;;;14.10;99.90;;;;;;5032712;28;20173;-78
2022/09/28 12:32:42;;;;;;;0.17;0.17;;;14.20;99.90;;;;;;5034466;28;20174;-77
2022/09/28 12:35:31;;;;;;;0.30;0.30;;;14.30;99.90;;;;;;5010273;28;20271;-78
2022/09/28 12:38:12;;;;;;;0.10;0.10;;;14.30;99.90;;;;;;5032294;28;20562;-77
2022/09/28 12:41:04;;;;;;;0.10;0.10;;;14.30;99.90;;;;;;5032442;28;20179;-78
2022/09/28 12:43:55;;;;;;;0.30;0.30;;;14.40;99.90;;;;;;5031121;28;20199;-78
2022/09/28 12:46:27;;;;;;;0.20;0.20;;;14.60;99.90;;;;;;5031511;28;20290;-78
2022/09/28 12:49:08;;;;;;;0.20;0.20;;;14.30;99.90;;;;;;5034212;28;20658;-78
2022/09/28 12:51:56;;;;;;;0.20;0.20;;;14.60;99.90;;;;;;5032076;28;20207;-77
2022/09/28 12:55:04;;;;;;;0.20;0.20;;;14.70;99.90;;;;;;5030011;28;20870;-78
2022/09/28 12:57:39;;;;;;;0.13;0.13;;;14.80;99.90;;;;;;5033137;28;20202;-78
2022/09/28 13:00:14;;;;;;;0.20;0.20;;;14.80;99.90;;;;;;5031261;28;20840;-78
2022/09/28 13:03:08;;;;;;;0.10;0.10;;;14.70;99.90;;;;;;5031159;28;20483;-77
2022/09/28 13:05:55;;;;;;;0.70;0.50;;;14.50;99.90;;;;;;5033481;28;20178;-77
2022/09/28 13:08:47;;;;;;;0.50;0.50;;;14.70;99.90;;;;;;5027274;28;20190;-78
2022/09/28 13:11:37;;;;;;;0.40;0.40;;;14.90;99.90;;;;;;5030233;28;20610;-78
2022/09/28 13:14:27;;;;;;;0.40;0.30;;;14.90;99.90;;;;;;5027584;28;20183;-78
2022/09/28 13:17:30;;;;;;;0.10;0.10;;;15.10;99.90;;;;;;5028376;28;20292;-78
2022/09/28 13:20:11;;;;;;;0.10;0.10;;;15.00;99.90;;;;;;5030170;28;20186;-78
2022/09/28 13:22:43;;;;;;;0.30;0.30;;;15.00;99.90;;;;;;5030093;28;20887;-78